地図

経路データ

SID SEASON NUMBER BASIN SUBBASIN NAME ISO_TIME NATURE LAT LON WMO_WIND WMO_PRES WMO_AGENCY TRACK_TYPE DIST2LAND LANDFALL IFLAG USA_AGENCY USA_ATCF_ID USA_LAT USA_LON USA_RECORD USA_STATUS USA_WIND USA_PRES USA_SSHS USA_R34_NE USA_R34_SE USA_R34_SW USA_R34_NW USA_R50_NE USA_R50_SE USA_R50_SW USA_R50_NW USA_R64_NE USA_R64_SE USA_R64_SW USA_R64_NW USA_POCI USA_ROCI USA_RMW USA_EYE TOKYO_LAT TOKYO_LON TOKYO_GRADE TOKYO_WIND TOKYO_PRES TOKYO_R50_DIR TOKYO_R50_LONG TOKYO_R50_SHORT TOKYO_R30_DIR TOKYO_R30_LONG TOKYO_R30_SHORT TOKYO_LAND CMA_LAT CMA_LON CMA_CAT CMA_WIND CMA_PRES HKO_LAT HKO_LON HKO_CAT HKO_WIND HKO_PRES NEWDELHI_LAT NEWDELHI_LON NEWDELHI_GRADE NEWDELHI_WIND NEWDELHI_PRES NEWDELHI_CI NEWDELHI_DP NEWDELHI_POCI REUNION_LAT REUNION_LON REUNION_TYPE REUNION_WIND REUNION_PRES REUNION_TNUM REUNION_CI REUNION_RMW REUNION_R34_NE REUNION_R34_SE REUNION_R34_SW REUNION_R34_NW REUNION_R50_NE REUNION_R50_SE REUNION_R50_SW REUNION_R50_NW REUNION_R64_NE REUNION_R64_SE REUNION_R64_SW REUNION_R64_NW BOM_LAT BOM_LON BOM_TYPE BOM_WIND BOM_PRES BOM_TNUM BOM_CI BOM_RMW BOM_R34_NE BOM_R34_SE BOM_R34_SW BOM_R34_NW BOM_R50_NE BOM_R50_SE BOM_R50_SW BOM_R50_NW BOM_R64_NE BOM_R64_SE BOM_R64_SW BOM_R64_NW BOM_ROCI BOM_POCI BOM_EYE BOM_POS_METHOD BOM_PRES_METHOD NADI_LAT NADI_LON NADI_CAT NADI_WIND NADI_PRES WELLINGTON_LAT WELLINGTON_LON WELLINGTON_WIND WELLINGTON_PRES DS824_LAT DS824_LON DS824_STAGE DS824_WIND DS824_PRES TD9636_LAT TD9636_LON TD9636_STAGE TD9636_WIND TD9636_PRES TD9635_LAT TD9635_LON TD9635_WIND TD9635_PRES TD9635_ROCI NEUMANN_LAT NEUMANN_LON NEUMANN_CLASS NEUMANN_WIND NEUMANN_PRES MLC_LAT MLC_LON MLC_CLASS MLC_WIND MLC_PRES USA_GUST BOM_GUST BOM_GUST_PER REUNION_GUST REUNION_GUST_PER USA_SEAHGT USA_SEARAD_NE USA_SEARAD_SE USA_SEARAD_SW USA_SEARAD_NW STORM_SPEED STORM_DIR
1968239N26273 1968 76 NA GM NOT_NAMED 1968-08-26 00:00:00 TS 26.0000 -87.5000 25 hurdat_atl main 370 370 O_____________ hurdat_atl AL061968 26.0000 -87.5000 TD 25 -1 5 87
1968239N26273 1968 76 NA GM NOT_NAMED 1968-08-26 03:00:00 TS 26.0101 -87.2474 main 383 379 P_____________ AL061968 26.0101 -87.2474 TD 25 -1 5 77
1968239N26273 1968 76 NA GM NOT_NAMED 1968-08-26 06:00:00 TS 26.1000 -87.0000 25 hurdat_atl main 384 376 O_____________ hurdat_atl AL061968 26.1000 -87.0000 TD 25 -1 5 55
1968239N26273 1968 76 NA GM NOT_NAMED 1968-08-26 09:00:00 TS 26.3199 -86.7575 main 376 362 P_____________ AL061968 26.3199 -86.7575 TD 25 -1 7 42
1968239N26273 1968 76 NA GM NOT_NAMED 1968-08-26 12:00:00 TS 26.6000 -86.5000 25 hurdat_atl main 362 322 O_____________ hurdat_atl AL061968 26.6000 -86.5000 TD 25 -1 7 41
1968239N26273 1968 76 NA GM NOT_NAMED 1968-08-26 15:00:00 TS 26.8649 -86.2225 main 322 294 P_____________ AL061968 26.8649 -86.2225 TD 25 -1 7 47
1968239N26273 1968 76 NA GM NOT_NAMED 1968-08-26 18:00:00 TS 27.1000 -85.9000 25 hurdat_atl main 294 267 O_____________ hurdat_atl AL061968 27.1000 -85.9000 TD 25 -1 8 59
1968239N26273 1968 76 NA GM NOT_NAMED 1968-08-26 21:00:00 TS 27.2577 -85.4923 main 264 223 P_____________ AL061968 27.2577 -85.4923 TD 25 -1 8 67
1968239N26273 1968 76 NA GM NOT_NAMED 1968-08-27 00:00:00 TS 27.4000 -85.1000 25 hurdat_atl main 223 189 O_____________ hurdat_atl AL061968 27.4000 -85.1000 TD 25 -1 7 60
1968239N26273 1968 76 NA GM NOT_NAMED 1968-08-27 03:00:00 TS 27.5998 -84.8349 main 189 167 P_____________ AL061968 27.5998 -84.8349 TD 25 -1 6 48
1968239N26273 1968 76 NA GM NOT_NAMED 1968-08-27 06:00:00 TS 27.8000 -84.6000 25 hurdat_atl main 167 137 O_____________ hurdat_atl AL061968 27.8000 -84.6000 TD 25 -1 6 56
1968239N26273 1968 76 NA GM NOT_NAMED 1968-08-27 09:00:00 TS 27.9200 -84.2996 main 137 110 P_____________ AL061968 27.9200 -84.2996 TD 25 -1 6 60
1968239N26273 1968 76 NA GM NOT_NAMED 1968-08-27 12:00:00 TS 28.1000 -84.0000 25 hurdat_atl main 110 98 O_____________ hurdat_atl AL061968 28.1000 -84.0000 TD 25 -1 8 40
1968239N26273 1968 76 NA GM NOT_NAMED 1968-08-27 15:00:00 TS 28.5074 -83.7429 main 97 51 P_____________ AL061968 28.5074 -83.7429 TD 25 -1 9 29
1968239N26273 1968 76 NA GM NOT_NAMED 1968-08-27 18:00:00 TS 28.9000 -83.5000 25 hurdat_atl main 51 14 O_____________ hurdat_atl AL061968 28.9000 -83.5000 TD 25 -1 7 39
1968239N26273 1968 76 NA GM NOT_NAMED 1968-08-27 21:00:00 TS 29.0751 -83.2198 main 14 11 P_____________ AL061968 29.0751 -83.2198 TD 25 -1 5 65
1968239N26273 1968 76 NA GM NOT_NAMED 1968-08-28 00:00:00 TS 29.1000 -83.0000 25 hurdat_atl main 11 9 O_____________ hurdat_atl AL061968 29.1000 -83.0000 TD 25 -1 3 88
1968239N26273 1968 76 NA GM NOT_NAMED 1968-08-28 03:00:00 TS 29.0824 -82.9200 main 9 9 P_____________ AL061968 29.0824 -82.9200 TD 25 -1 2 155
1968239N26273 1968 76 NA GM NOT_NAMED 1968-08-28 06:00:00 TS 28.9000 -82.9000 25 hurdat_atl main 14 14 O_____________ hurdat_atl AL061968 28.9000 -82.9000 TD 25 -1 6 174
1968239N26273 1968 76 NA GM NOT_NAMED 1968-08-28 09:00:00 TS 28.4725 -82.8499 main 19 0 P_____________ AL061968 28.4725 -82.8499 TD 25 -1 9 175
1968239N26273 1968 76 NA GM NOT_NAMED 1968-08-28 12:00:00 TS 28.0000 -82.8000 25 hurdat_atl main 0 0 O_____________ hurdat_atl AL061968 28.0000 -82.8000 TD 25 -1 8 174
1968239N26273 1968 76 NA GM NOT_NAMED 1968-08-28 15:00:00 TS 27.7125 -82.7576 main 9 0 P_____________ AL061968 27.7125 -82.7576 TD 25 -1 5 170
1968239N26273 1968 76 NA GM NOT_NAMED 1968-08-28 18:00:00 TS 27.5000 -82.7000 25 hurdat_atl main 9 0 O_____________ hurdat_atl AL061968 27.5000 -82.7000 TD 25 -1 5 163
1968239N26273 1968 76 NA GM NOT_NAMED 1968-08-28 21:00:00 TS 27.2550 -82.5999 main 0 0 P_____________ AL061968 27.2550 -82.5999 TD 25 -1 4 156
1968239N26273 1968 76 NA GM NOT_NAMED 1968-08-29 00:00:00 TS 27.1000 -82.5000 25 hurdat_atl main 9 0 O_____________ hurdat_atl AL061968 27.1000 -82.5000 TD 25 -1 2 138
1968239N26273 1968 76 NA GM NOT_NAMED 1968-08-29 03:00:00 TS 27.0975 -82.4426 main 0 0 P_____________ AL061968 27.0975 -82.4426 TD 25 -1 1 40
1968239N26273 1968 76 NA NA NOT_NAMED 1968-08-29 06:00:00 TS 27.2000 -82.4000 25 hurdat_atl main 0 0 O_____________ hurdat_atl AL061968 27.2000 -82.4000 TD 25 -1 3 18
1968239N26273 1968 76 NA NA NOT_NAMED 1968-08-29 09:00:00 TS 27.3350 -82.3575 main 0 0 P_____________ AL061968 27.3350 -82.3575 TD 25 -1 3 16
1968239N26273 1968 76 NA NA NOT_NAMED 1968-08-29 12:00:00 TS 27.5000 -82.3000 25 hurdat_atl main 0 0 O_____________ hurdat_atl AL061968 27.5000 -82.3000 TD 25 -1 4 23
1968239N26273 1968 76 NA NA NOT_NAMED 1968-08-29 15:00:00 TS 27.6575 -82.2001 main 0 0 P_____________ AL061968 27.6575 -82.2001 TD 25 -1 3 30
1968239N26273 1968 76 NA NA NOT_NAMED 1968-08-29 18:00:00 TS 27.8000 -82.1000 25 hurdat_atl main 0 0 O_____________ hurdat_atl AL061968 27.8000 -82.1000 TD 25 -1 3 31
1968239N26273 1968 76 NA NA NOT_NAMED 1968-08-29 21:00:00 TS 27.9075 -82.0350 main 0 0 P_____________ AL061968 27.9075 -82.0350 TD 25 -1 2 25
1968239N26273 1968 76 NA NA NOT_NAMED 1968-08-30 00:00:00 TS 28.0000 -82.0000 25 hurdat_atl main 0 0 O_____________ hurdat_atl AL061968 28.0000 -82.0000 TD 25 -1 2 13
1968239N26273 1968 76 NA NA NOT_NAMED 1968-08-30 03:00:00 TS 28.1075 -81.9925 main 0 0 P_____________ AL061968 28.1075 -81.9925 TD 25 -1 2 8
1968239N26273 1968 76 NA NA NOT_NAMED 1968-08-30 06:00:00 TS 28.2000 -82.0000 25 hurdat_atl main 0 0 O_____________ hurdat_atl AL061968 28.2000 -82.0000 TD 25 -1 1 0
1968239N26273 1968 76 NA NA NOT_NAMED 1968-08-30 09:00:00 TS 28.2200 -82.0000 main 0 0 P_____________ AL061968 28.2200 -82.0000 TD 25 -1 1 0
1968239N26273 1968 76 NA NA NOT_NAMED 1968-08-30 12:00:00 TS 28.3000 -82.0000 25 hurdat_atl main 0 0 O_____________ hurdat_atl AL061968 28.3000 -82.0000 TD 25 -1 4 356
1968239N26273 1968 76 NA NA NOT_NAMED 1968-08-30 15:00:00 TS 28.5925 -82.0149 main 0 0 P_____________ AL061968 28.5925 -82.0149 TD 25 -1 6 1
1968239N26273 1968 76 NA NA NOT_NAMED 1968-08-30 18:00:00 TS 28.9000 -82.0000 25 hurdat_atl main 0 0 O_____________ hurdat_atl AL061968 28.9000 -82.0000 TD 25 -1 4 13
1968239N26273 1968 76 NA NA NOT_NAMED 1968-08-30 21:00:00 TS 29.0150 -81.9000 main 0 0 P_____________ AL061968 29.0150 -81.9000 TD 25 -1 3 42
1968239N26273 1968 76 NA NA NOT_NAMED 1968-08-31 00:00:00 TS 29.1000 -81.8000 25 hurdat_atl main 0 0 O_____________ hurdat_atl AL061968 29.1000 -81.8000 TD 25 -1 3 22
1968239N26273 1968 76 NA NA NOT_NAMED 1968-08-31 03:00:00 TS 29.2700 -81.7924 main 0 0 P_____________ AL061968 29.2700 -81.7924 TD 25 -1 4 0
1968239N26273 1968 76 NA NA NOT_NAMED 1968-08-31 06:00:00 TS 29.5000 -81.8000 25 hurdat_atl main 0 0 O_____________ hurdat_atl AL061968 29.5000 -81.8000 TD 25 -1 5 0
1968239N26273 1968 76 NA NA NOT_NAMED 1968-08-31 09:00:00 TS 29.7999 -81.7948 main 0 0 P_____________ AL061968 29.7999 -81.7948 TD 25 -1 6 8
1968239N26273 1968 76 NA NA NOT_NAMED 1968-08-31 12:00:00 TS 30.1000 -81.7000 25 hurdat_atl main 0 0 O_____________ hurdat_atl AL061968 30.1000 -81.7000 TD 25 -1 6 34
1968239N26273 1968 76 NA NA NOT_NAMED 1968-08-31 15:00:00 TS 30.3078 -81.4002 main 9 9 P_____________ AL061968 30.3078 -81.4002 TD 25 -1 7 52
1968239N26273 1968 76 NA NA NOT_NAMED 1968-08-31 18:00:00 TS 30.5000 -81.1000 25 hurdat_atl main 36 36 O_____________ hurdat_atl AL061968 30.5000 -81.1000 TD 25 -1 6 40
1968239N26273 1968 76 NA NA NOT_NAMED 1968-08-31 21:00:00 TS 30.7348 -80.9872 main 38 38 P_____________ AL061968 30.7348 -80.9872 TD 25 -1 5 10
1968239N26273 1968 76 NA NA NOT_NAMED 1968-09-01 00:00:00 TS 31.0000 -81.0000 25 hurdat_atl main 38 O_____________ hurdat_atl AL061968 31.0000 -81.0000 TD 25 -1 5 358

IBTrACS Databaseについて

本データベースは、米国NOAAが公開する1842年以降の世界の熱帯低気圧のベストトラックデータアーカイブInternational Best Track Archive for Climate Stewardship (IBTrACS)を、ウェブで閲覧しやすい形式に変換したものです。

最終更新日:2021-10-08